MUCM/CMW METAR and TAF weather

Enter ICAO airport designator
Station Type Date Time Source
MUCM METAR 2021/09/28 16:50 UTC NOAA

MUCM 281650Z 04008KT 010V070 9000 SCT020 31/22 Q1014


Station Type Date Time Source
MUCM Decoded METAR 2021/09/28 16:50 UTC NOAA

Camaguey Aeropuerto, Cuba (MUCM) 21-25N 077-51W 118M
Sep 28, 2021 - 12:50 PM EDT / 2021.09.28 1650 UTC
Wind: from the NE (040 degrees) at 9 MPH (8 KT) (direction variable):0
Visibility: 5 mile(s):0
Sky conditions: partly cloudy
Temperature: 87 F (31 C)
Heat index: 92.3 F (33.5 C):1
Dew Point: 71 F (22 C)
Relative Humidity: 58%
Pressure (altimeter): 29.94 in. Hg (1014 hPa)
ob: MUCM 281650Z 04008KT 010V070 9000 SCT020 31/22 Q1014
cycle: 17

Station Type Date Time Source
MUCM TAF 2021/09/28 18:03 UTC NOAA

TAF MUCM 281700Z 2818/2918 VRB03KT 8000 SCT020
TEMPO 2818/2824 3000 TS SCT018CB BKN020
BECMG 2915/2917 07008KT

Example: see airport list